sensor_id;sensor_type;location;lat;lon;timestamp;pressure;altitude;pressure_sealevel;temperature;humidity
52957;BME280;38819;42.692;23.342;2023-03-08T00:00:00;94465.41;;;9.25;52.90
52957;BME280;38819;42.692;23.342;2023-03-08T00:02:25;94477.34;;;9.33;52.42
52957;BME280;38819;42.692;23.342;2023-03-08T00:04:54;94471.09;;;9.24;52.31
52957;BME280;38819;42.692;23.342;2023-03-08T00:07:20;94472.06;;;9.28;51.84
52957;BME280;38819;42.692;23.342;2023-03-08T00:09:45;94475.78;;;9.32;51.94
52957;BME280;38819;42.692;23.342;2023-03-08T00:12:11;94471.78;;;9.30;52.19
52957;BME280;38819;42.692;23.342;2023-03-08T00:14:37;94485.44;;;9.33;52.25
52957;BME280;38819;42.692;23.342;2023-03-08T00:17:02;94477.69;;;9.18;52.81
52957;BME280;38819;42.692;23.342;2023-03-08T00:19:29;94492.34;;;9.25;52.34
52957;BME280;38819;42.692;23.342;2023-03-08T00:21:55;94485.84;;;9.26;52.44
52957;BME280;38819;42.692;23.342;2023-03-08T00:24:21;94476.91;;;9.17;52.90
52957;BME280;38819;42.692;23.342;2023-03-08T00:26:47;94478.78;;;9.17;52.77
52957;BME280;38819;42.692;23.342;2023-03-08T00:29:12;94486.16;;;9.11;53.00
52957;BME280;38819;42.692;23.342;2023-03-08T00:31:37;94487.97;;;9.16;52.80
52957;BME280;38819;42.692;23.342;2023-03-08T00:34:03;94482.28;;;9.03;52.96
52957;BME280;38819;42.692;23.342;2023-03-08T00:36:29;94486.16;;;9.11;52.58
52957;BME280;38819;42.692;23.342;2023-03-08T00:38:55;94485.09;;;9.12;52.70
52957;BME280;38819;42.692;23.342;2023-03-08T00:41:21;94476.09;;;9.03;53.00
52957;BME280;38819;42.692;23.342;2023-03-08T00:43:47;94474.09;;;8.95;53.38
52957;BME280;38819;42.692;23.342;2023-03-08T00:46:13;94473.03;;;8.96;53.33
52957;BME280;38819;42.692;23.342;2023-03-08T00:48:39;94474.00;;;9.00;53.45
52957;BME280;38819;42.692;23.342;2023-03-08T00:51:05;94467.22;;;8.88;53.95
52957;BME280;38819;42.692;23.342;2023-03-08T00:53:32;94474.09;;;8.95;53.75
52957;BME280;38819;42.692;23.342;2023-03-08T00:55:59;94469.63;;;8.90;53.78
52957;BME280;38819;42.692;23.342;2023-03-08T00:58:27;94472.50;;;8.80;53.90
52957;BME280;38819;42.692;23.342;2023-03-08T01:00:53;94473.00;;;8.68;54.31
52957;BME280;38819;42.692;23.342;2023-03-08T01:03:19;94478.78;;;8.75;53.60
52957;BME280;38819;42.692;23.342;2023-03-08T01:05:48;94480.88;;;8.78;53.91
52957;BME280;38819;42.692;23.342;2023-03-08T01:08:15;94482.59;;;8.74;54.13
52957;BME280;38819;42.692;23.342;2023-03-08T01:10:46;94482.59;;;8.74;53.89
52957;BME280;38819;42.692;23.342;2023-03-08T01:13:12;94476.72;;;8.72;53.75
52957;BME280;38819;42.692;23.342;2023-03-08T01:15:37;94484.06;;;8.80;53.75
52957;BME280;38819;42.692;23.342;2023-03-08T01:18:04;94480.00;;;8.83;54.22
52957;BME280;38819;42.692;23.342;2023-03-08T01:20:30;94478.09;;;8.83;54.36
52957;BME280;38819;42.692;23.342;2023-03-08T01:22:55;94485.56;;;8.86;54.04
52957;BME280;38819;42.692;23.342;2023-03-08T01:25:21;94472.22;;;8.67;54.40
52957;BME280;38819;42.692;23.342;2023-03-08T01:27:46;94478.09;;;8.69;54.57
52957;BME280;38819;42.692;23.342;2023-03-08T01:30:12;94481.28;;;8.58;55.37
52957;BME280;38819;42.692;23.342;2023-03-08T01:32:37;94479.97;;;8.55;55.26
52957;BME280;38819;42.692;23.342;2023-03-08T01:35:03;94478.19;;;8.50;55.55
52957;BME280;38819;42.692;23.342;2023-03-08T01:37:32;94483.09;;;8.62;54.81
52957;BME280;38819;42.692;23.342;2023-03-08T01:39:59;94496.50;;;8.48;54.91
52957;BME280;38819;42.692;23.342;2023-03-08T01:42:25;94494.94;;;8.47;55.30
52957;BME280;38819;42.692;23.342;2023-03-08T01:45:03;94488.13;;;8.50;55.38
52957;BME280;38819;42.692;23.342;2023-03-08T01:47:30;94490.25;;;8.53;55.08
52957;BME280;38819;42.692;23.342;2023-03-08T01:49:59;94495.56;;;8.39;55.71
52957;BME280;38819;42.692;23.342;2023-03-08T01:52:39;94488.88;;;8.37;55.82
52957;BME280;38819;42.692;23.342;2023-03-08T01:55:09;94488.47;;;8.29;55.53
52957;BME280;38819;42.692;23.342;2023-03-08T01:57:43;94490.16;;;8.25;55.62
52957;BME280;38819;42.692;23.342;2023-03-08T02:00:13;94490.97;;;8.26;55.82
52957;BME280;38819;42.692;23.342;2023-03-08T02:02:59;94483.38;;;8.28;55.55
52957;BME280;38819;42.692;23.342;2023-03-08T02:05:26;94492.53;;;8.27;55.48
52957;BME280;38819;42.692;23.342;2023-03-08T02:07:53;94485.59;;;8.26;55.30
52957;BME280;38819;42.692;23.342;2023-03-08T02:10:18;94493.56;;;8.31;55.78
52957;BME280;38819;42.692;23.342;2023-03-08T02:12:44;94499.13;;;8.21;55.79
52957;BME280;38819;42.692;23.342;2023-03-08T02:15:13;94497.50;;;8.20;55.72
52957;BME280;38819;42.692;23.342;2023-03-08T02:17:40;94500.59;;;8.27;55.72
52957;BME280;38819;42.692;23.342;2023-03-08T02:20:39;94489.63;;;8.09;56.14
52957;BME280;38819;42.692;23.342;2023-03-08T02:25:37;94480.84;;;8.04;56.00
52957;BME280;38819;42.692;23.342;2023-03-08T02:28:05;94489.31;;;8.11;56.01
52957;BME280;38819;42.692;23.342;2023-03-08T02:30:33;94479.16;;;8.08;55.86
52957;BME280;38819;42.692;23.342;2023-03-08T02:32:59;94474.72;;;7.98;55.95
52957;BME280;38819;42.692;23.342;2023-03-08T02:35:25;94492.50;;;8.13;55.61
52957;BME280;38819;42.692;23.342;2023-03-08T02:37:51;94495.50;;;8.11;55.55
52957;BME280;38819;42.692;23.342;2023-03-08T02:40:16;94513.81;;;8.09;55.53
52957;BME280;38819;42.692;23.342;2023-03-08T02:42:42;94507.94;;;8.07;55.64
52957;BME280;38819;42.692;23.342;2023-03-08T02:45:08;94507.44;;;8.05;55.97
52957;BME280;38819;42.692;23.342;2023-03-08T02:47:33;94496.53;;;8.15;55.68
52957;BME280;38819;42.692;23.342;2023-03-08T02:49:59;94512.06;;;8.19;55.19
52957;BME280;38819;42.692;23.342;2023-03-08T02:52:24;94510.25;;;8.14;55.40
52957;BME280;38819;42.692;23.342;2023-03-08T02:54:50;94522.38;;;8.11;55.90
52957;BME280;38819;42.692;23.342;2023-03-08T02:57:15;94499.50;;;7.95;56.25
52957;BME280;38819;42.692;23.342;2023-03-08T02:59:40;94512.97;;;7.95;56.27
52957;BME280;38819;42.692;23.342;2023-03-08T03:02:06;94516.88;;;8.03;56.47
52957;BME280;38819;42.692;23.342;2023-03-08T03:04:32;94508.72;;;8.08;56.66
52957;BME280;38819;42.692;23.342;2023-03-08T03:06:58;94526.03;;;8.02;56.47
52957;BME280;38819;42.692;23.342;2023-03-08T03:09:24;94511.91;;;8.10;56.55
52957;BME280;38819;42.692;23.342;2023-03-08T03:11:49;94516.00;;;8.07;56.36
52957;BME280;38819;42.692;23.342;2023-03-08T03:14:15;94523.28;;;7.88;56.92
52957;BME280;38819;42.692;23.342;2023-03-08T03:16:41;94525.34;;;7.77;57.22
52957;BME280;38819;42.692;23.342;2023-03-08T03:19:06;94523.38;;;7.83;57.28
52957;BME280;38819;42.692;23.342;2023-03-08T03:21:31;94509.94;;;7.83;57.50
52957;BME280;38819;42.692;23.342;2023-03-08T03:23:57;94518.16;;;7.72;57.65
52957;BME280;38819;42.692;23.342;2023-03-08T03:26:23;94523.66;;;7.81;57.23
52957;BME280;38819;42.692;23.342;2023-03-08T03:28:48;94521.91;;;7.71;57.72
52957;BME280;38819;42.692;23.342;2023-03-08T03:31:19;94532.97;;;7.70;57.65
52957;BME280;38819;42.692;23.342;2023-03-08T03:33:45;94537.97;;;7.76;57.53
52957;BME280;38819;42.692;23.342;2023-03-08T03:36:13;94518.94;;;7.73;57.79
52957;BME280;38819;42.692;23.342;2023-03-08T03:38:38;94541.22;;;7.73;57.92
52957;BME280;38819;42.692;23.342;2023-03-08T03:41:09;94530.28;;;7.70;57.92
52957;BME280;38819;42.692;23.342;2023-03-08T03:43:36;94545.25;;;7.76;57.83
52957;BME280;38819;42.692;23.342;2023-03-08T03:46:07;94540.88;;;7.80;58.00
52957;BME280;38819;42.692;23.342;2023-03-08T03:48:36;94546.19;;;7.85;57.83
52957;BME280;38819;42.692;23.342;2023-03-08T03:51:04;94545.66;;;7.83;57.94
52957;BME280;38819;42.692;23.342;2023-03-08T03:53:31;94556.28;;;7.74;58.20
52957;BME280;38819;42.692;23.342;2023-03-08T03:56:03;94558.97;;;7.74;58.01
52957;BME280;38819;42.692;23.342;2023-03-08T03:58:29;94540.72;;;7.71;58.31
52957;BME280;38819;42.692;23.342;2023-03-08T04:00:55;94549.63;;;7.72;58.21
52957;BME280;38819;42.692;23.342;2023-03-08T04:03:20;94545.81;;;7.73;58.09
52957;BME280;38819;42.692;23.342;2023-03-08T04:05:46;94545.97;;;7.63;58.35
52957;BME280;38819;42.692;23.342;2023-03-08T04:08:11;94545.38;;;7.47;58.80
52957;BME280;38819;42.692;23.342;2023-03-08T04:10:37;94544.72;;;7.36;59.19
52957;BME280;38819;42.692;23.342;2023-03-08T04:13:02;94546.75;;;7.44;59.03
52957;BME280;38819;42.692;23.342;2023-03-08T04:15:28;94555.31;;;7.46;58.95
52957;BME280;38819;42.692;23.342;2023-03-08T04:17:53;94551.09;;;7.40;59.28
52957;BME280;38819;42.692;23.342;2023-03-08T04:20:19;94555.53;;;7.50;59.19
52957;BME280;38819;42.692;23.342;2023-03-08T04:22:45;94546.69;;;7.49;59.08
52957;BME280;38819;42.692;23.342;2023-03-08T04:25:10;94565.22;;;7.51;58.95
52957;BME280;38819;42.692;23.342;2023-03-08T04:27:36;94564.16;;;7.47;59.03
52957;BME280;38819;42.692;23.342;2023-03-08T04:30:01;94566.84;;;7.47;58.99
52957;BME280;38819;42.692;23.342;2023-03-08T04:32:32;94563.09;;;7.48;59.07
52957;BME280;38819;42.692;23.342;2023-03-08T04:34:58;94556.53;;;7.35;59.91
52957;BME280;38819;42.692;23.342;2023-03-08T04:37:24;94558.78;;;7.28;59.96
52957;BME280;38819;42.692;23.342;2023-03-08T04:39:50;94555.97;;;7.38;59.63
52957;BME280;38819;42.692;23.342;2023-03-08T04:42:15;94554.81;;;7.20;59.97
52957;BME280;38819;42.692;23.342;2023-03-08T04:44:41;94553.34;;;7.33;59.71
52957;BME280;38819;42.692;23.342;2023-03-08T04:47:07;94551.97;;;7.35;59.79
52957;BME280;38819;42.692;23.342;2023-03-08T04:49:32;94552.53;;;7.32;59.92
52957;BME280;38819;42.692;23.342;2023-03-08T04:51:58;94553.69;;;7.26;60.08
52957;BME280;38819;42.692;23.342;2023-03-08T04:54:23;94555.66;;;7.39;59.54
52957;BME280;38819;42.692;23.342;2023-03-08T04:56:48;94569.09;;;7.39;59.56
52957;BME280;38819;42.692;23.342;2023-03-08T04:59:14;94565.63;;;7.39;59.34
52957;BME280;38819;42.692;23.342;2023-03-08T05:01:39;94562.94;;;7.39;59.44
52957;BME280;38819;42.692;23.342;2023-03-08T05:04:09;94581.59;;;7.30;60.22
52957;BME280;38819;42.692;23.342;2023-03-08T05:06:35;94569.66;;;7.17;59.89
52957;BME280;38819;42.692;23.342;2023-03-08T05:09:01;94577.53;;;7.09;59.82
52957;BME280;38819;42.692;23.342;2023-03-08T05:11:28;94586.03;;;6.92;59.88
52957;BME280;38819;42.692;23.342;2023-03-08T05:13:56;94602.16;;;6.62;60.13
52957;BME280;38819;42.692;23.342;2023-03-08T05:16:22;94602.94;;;6.63;60.04
52957;BME280;38819;42.692;23.342;2023-03-08T05:18:48;94608.81;;;6.70;59.79
52957;BME280;38819;42.692;23.342;2023-03-08T05:21:15;94595.09;;;6.72;59.86
52957;BME280;38819;42.692;23.342;2023-03-08T05:23:42;94593.94;;;6.78;59.77
52957;BME280;38819;42.692;23.342;2023-03-08T05:26:09;94594.38;;;6.90;59.17
52957;BME280;38819;42.692;23.342;2023-03-08T05:28:35;94617.50;;;6.86;59.09
52957;BME280;38819;42.692;23.342;2023-03-08T05:31:14;94610.53;;;6.85;59.32
52957;BME280;38819;42.692;23.342;2023-03-08T05:33:40;94624.75;;;6.85;58.97
52957;BME280;38819;42.692;23.342;2023-03-08T05:36:07;94631.09;;;6.95;59.02
52957;BME280;38819;42.692;23.342;2023-03-08T05:38:33;94626.72;;;7.04;58.72
52957;BME280;38819;42.692;23.342;2023-03-08T05:41:00;94621.06;;;7.05;58.67
52957;BME280;38819;42.692;23.342;2023-03-08T05:43:26;94626.84;;;7.18;58.45
52957;BME280;38819;42.692;23.342;2023-03-08T05:46:02;94629.81;;;7.16;58.55
52957;BME280;38819;42.692;23.342;2023-03-08T05:48:29;94628.84;;;7.07;58.78
52957;BME280;38819;42.692;23.342;2023-03-08T05:50:55;94643.38;;;7.01;59.04
52957;BME280;38819;42.692;23.342;2023-03-08T05:53:21;94645.91;;;6.92;59.45
52957;BME280;38819;42.692;23.342;2023-03-08T05:55:47;94639.41;;;6.98;59.15
52957;BME280;38819;42.692;23.342;2023-03-08T05:58:13;94653.78;;;7.08;58.55
52957;BME280;38819;42.692;23.342;2023-03-08T06:00:38;94652.25;;;7.01;58.77
52957;BME280;38819;42.692;23.342;2023-03-08T06:03:04;94650.81;;;7.09;58.48
52957;BME280;38819;42.692;23.342;2023-03-08T06:05:30;94651.00;;;7.18;58.03
52957;BME280;38819;42.692;23.342;2023-03-08T06:07:56;94655.53;;;7.22;57.79
52957;BME280;38819;42.692;23.342;2023-03-08T06:10:21;94647.25;;;7.19;57.80
52957;BME280;38819;42.692;23.342;2023-03-08T06:12:47;94659.00;;;7.23;58.00
52957;BME280;38819;42.692;23.342;2023-03-08T06:15:13;94661.91;;;7.27;57.93
52957;BME280;38819;42.692;23.342;2023-03-08T06:17:39;94658.66;;;7.30;58.03
52957;BME280;38819;42.692;23.342;2023-03-08T06:20:05;94663.75;;;7.31;58.01
52957;BME280;38819;42.692;23.342;2023-03-08T06:22:31;94674.44;;;7.36;58.35
52957;BME280;38819;42.692;23.342;2023-03-08T06:24:57;94671.97;;;7.40;58.49
52957;BME280;38819;42.692;23.342;2023-03-08T06:27:22;94669.56;;;7.44;58.21
52957;BME280;38819;42.692;23.342;2023-03-08T06:29:48;94665.97;;;7.48;58.42
52957;BME280;38819;42.692;23.342;2023-03-08T06:32:14;94672.00;;;7.64;58.58
52957;BME280;38819;42.692;23.342;2023-03-08T06:34:40;94673.84;;;7.69;58.16
52957;BME280;38819;42.692;23.342;2023-03-08T06:37:05;94677.53;;;7.73;57.82
52957;BME280;38819;42.692;23.342;2023-03-08T06:39:30;94672.59;;;7.80;57.94
52957;BME280;38819;42.692;23.342;2023-03-08T06:41:57;94689.13;;;7.92;57.68
52957;BME280;38819;42.692;23.342;2023-03-08T06:44:22;94677.94;;;8.04;57.76
52957;BME280;38819;42.692;23.342;2023-03-08T06:46:48;94678.31;;;8.16;57.60
52957;BME280;38819;42.692;23.342;2023-03-08T06:49:13;94682.25;;;8.24;57.70
52957;BME280;38819;42.692;23.342;2023-03-08T06:51:39;94686.19;;;8.32;57.57
52957;BME280;38819;42.692;23.342;2023-03-08T06:54:04;94691.56;;;8.32;57.58
52957;BME280;38819;42.692;23.342;2023-03-08T06:56:30;94694.13;;;8.42;57.36
52957;BME280;38819;42.692;23.342;2023-03-08T06:58:55;94701.66;;;8.40;58.04
52957;BME280;38819;42.692;23.342;2023-03-08T07:01:21;94701.78;;;8.54;57.60
52957;BME280;38819;42.692;23.342;2023-03-08T07:03:46;94710.00;;;8.44;58.54
52957;BME280;38819;42.692;23.342;2023-03-08T07:06:13;94718.56;;;8.65;57.90
52957;BME280;38819;42.692;23.342;2023-03-08T07:08:38;94711.16;;;8.76;57.44
52957;BME280;38819;42.692;23.342;2023-03-08T07:11:05;94721.03;;;8.80;57.61
52957;BME280;38819;42.692;23.342;2023-03-08T07:13:32;94714.47;;;8.86;57.66
52957;BME280;38819;42.692;23.342;2023-03-08T07:15:58;94718.59;;;8.98;57.20
52957;BME280;38819;42.692;23.342;2023-03-08T07:18:24;94717.94;;;9.06;57.26
52957;BME280;38819;42.692;23.342;2023-03-08T07:20:55;94724.47;;;9.19;56.81
52957;BME280;38819;42.692;23.342;2023-03-08T07:23:20;94715.84;;;9.17;57.03
52957;BME280;38819;42.692;23.342;2023-03-08T07:25:46;94719.97;;;9.28;56.95
52957;BME280;38819;42.692;23.342;2023-03-08T07:28:11;94719.81;;;9.38;56.62
52957;BME280;38819;42.692;23.342;2023-03-08T07:30:37;94724.50;;;9.46;56.40
52957;BME280;38819;42.692;23.342;2023-03-08T07:33:02;94723.34;;;9.53;56.64
52957;BME280;38819;42.692;23.342;2023-03-08T07:35:28;94718.84;;;9.62;56.41
52957;BME280;38819;42.692;23.342;2023-03-08T07:37:54;94716.28;;;9.71;56.30
52957;BME280;38819;42.692;23.342;2023-03-08T07:40:19;94717.84;;;9.58;56.45
52957;BME280;38819;42.692;23.342;2023-03-08T07:42:45;94730.63;;;9.66;56.08
52957;BME280;38819;42.692;23.342;2023-03-08T07:45:11;94711.97;;;9.70;55.93
52957;BME280;38819;42.692;23.342;2023-03-08T07:47:38;94717.94;;;9.80;56.01
52957;BME280;38819;42.692;23.342;2023-03-08T07:50:03;94714.25;;;9.90;55.67
52957;BME280;38819;42.692;23.342;2023-03-08T07:52:29;94718.53;;;10.05;55.66
52957;BME280;38819;42.692;23.342;2023-03-08T07:54:55;94715.06;;;10.05;55.26
52957;BME280;38819;42.692;23.342;2023-03-08T07:57:22;94719.84;;;10.08;54.94
52957;BME280;38819;42.692;23.342;2023-03-08T07:59:49;94719.53;;;9.95;55.55
52957;BME280;38819;42.692;23.342;2023-03-08T08:02:15;94718.94;;;9.98;55.65
52957;BME280;38819;42.692;23.342;2023-03-08T08:04:41;94718.94;;;9.98;55.64
52957;BME280;38819;42.692;23.342;2023-03-08T08:07:11;94725.06;;;10.04;55.44
52957;BME280;38819;42.692;23.342;2023-03-08T08:09:37;94725.53;;;10.06;55.62
52957;BME280;38819;42.692;23.342;2023-03-08T08:12:04;94729.44;;;10.00;55.69
52957;BME280;38819;42.692;23.342;2023-03-08T08:14:29;94721.44;;;10.09;55.55
52957;BME280;38819;42.692;23.342;2023-03-08T08:16:55;94713.44;;;10.04;55.45
52957;BME280;38819;42.692;23.342;2023-03-08T08:19:21;94729.22;;;10.10;55.42
52957;BME280;38819;42.692;23.342;2023-03-08T08:21:46;94727.84;;;10.13;55.79
52957;BME280;38819;42.692;23.342;2023-03-08T08:24:13;94722.22;;;10.23;55.18
52957;BME280;38819;42.692;23.342;2023-03-08T08:26:38;94725.22;;;10.35;55.14
52957;BME280;38819;42.692;23.342;2023-03-08T08:29:04;94733.44;;;10.44;54.58
52957;BME280;38819;42.692;23.342;2023-03-08T08:31:29;94732.09;;;10.55;54.40
52957;BME280;38819;42.692;23.342;2023-03-08T08:33:58;94742.34;;;10.67;53.94
52957;BME280;38819;42.692;23.342;2023-03-08T08:36:24;94741.72;;;10.84;53.68
52957;BME280;38819;42.692;23.342;2023-03-08T08:38:50;94738.47;;;10.96;53.28
52957;BME280;38819;42.692;23.342;2023-03-08T08:41:17;94735.09;;;11.13;53.01
52957;BME280;38819;42.692;23.342;2023-03-08T08:43:45;94735.81;;;11.27;52.66
52957;BME280;38819;42.692;23.342;2023-03-08T08:46:11;94727.97;;;11.40;52.52
52957;BME280;38819;42.692;23.342;2023-03-08T08:48:37;94733.44;;;11.57;52.08
52957;BME280;38819;42.692;23.342;2023-03-08T08:51:08;94732.25;;;11.72;51.78
52957;BME280;38819;42.692;23.342;2023-03-08T08:53:34;94727.63;;;11.73;51.36
52957;BME280;38819;42.692;23.342;2023-03-08T08:56:17;94731.19;;;11.82;51.19
52957;BME280;38819;42.692;23.342;2023-03-08T08:58:42;94728.63;;;11.77;51.28
52957;BME280;38819;42.692;23.342;2023-03-08T09:01:33;94726.94;;;11.58;51.81
52957;BME280;38819;42.692;23.342;2023-03-08T09:03:59;94737.22;;;11.47;51.90
52957;BME280;38819;42.692;23.342;2023-03-08T09:06:26;94727.06;;;11.53;51.49
52957;BME280;38819;42.692;23.342;2023-03-08T09:08:54;94726.63;;;11.60;51.58
52957;BME280;38819;42.692;23.342;2023-03-08T09:11:20;94720.75;;;11.58;51.77
52957;BME280;38819;42.692;23.342;2023-03-08T09:13:46;94730.56;;;11.54;51.78
52957;BME280;38819;42.692;23.342;2023-03-08T09:16:20;94730.91;;;11.61;51.95
52957;BME280;38819;42.692;23.342;2023-03-08T09:18:47;94732.50;;;11.53;52.13
52957;BME280;38819;42.692;23.342;2023-03-08T09:21:12;94728.03;;;11.57;52.03
52957;BME280;38819;42.692;23.342;2023-03-08T09:23:38;94726.78;;;11.55;52.01
52957;BME280;38819;42.692;23.342;2023-03-08T09:26:04;94721.94;;;11.43;52.15
52957;BME280;38819;42.692;23.342;2023-03-08T09:28:31;94715.88;;;11.46;52.14
52957;BME280;38819;42.692;23.342;2023-03-08T09:30:56;94711.50;;;11.59;51.84
52957;BME280;38819;42.692;23.342;2023-03-08T09:33:22;94716.16;;;11.67;51.56
52957;BME280;38819;42.692;23.342;2023-03-08T09:35:57;94711.22;;;11.69;51.55
52957;BME280;38819;42.692;23.342;2023-03-08T09:38:23;94706.69;;;11.87;51.31
52957;BME280;38819;42.692;23.342;2023-03-08T09:43:46;94709.28;;;11.92;51.23
52957;BME280;38819;42.692;23.342;2023-03-08T09:46:13;94700.22;;;11.97;51.13
52957;BME280;38819;42.692;23.342;2023-03-08T09:48:42;94697.31;;;11.84;51.35
52957;BME280;38819;42.692;23.342;2023-03-08T09:51:12;94697.66;;;11.92;51.18
52957;BME280;38819;42.692;23.342;2023-03-08T09:53:47;94704.75;;;11.79;51.63
52957;BME280;38819;42.692;23.342;2023-03-08T09:56:45;94687.72;;;11.78;52.00
52957;BME280;38819;42.692;23.342;2023-03-08T09:59:24;94687.91;;;11.91;51.53
52957;BME280;38819;42.692;23.342;2023-03-08T10:16:25;94676.25;;;12.30;50.27
52957;BME280;38819;42.692;23.342;2023-03-08T10:18:55;94677.88;;;12.31;50.42
52957;BME280;38819;42.692;23.342;2023-03-08T10:21:24;94673.25;;;12.49;50.04
52957;BME280;38819;42.692;23.342;2023-03-08T10:24:06;94665.00;;;12.63;49.70
52957;BME280;38819;42.692;23.342;2023-03-08T10:26:36;94669.13;;;12.78;49.25
52957;BME280;38819;42.692;23.342;2023-03-08T10:29:01;94670.06;;;12.82;48.95
52957;BME280;38819;42.692;23.342;2023-03-08T10:31:29;94672.13;;;12.94;48.50
52957;BME280;38819;42.692;23.342;2023-03-08T10:34:17;94667.84;;;13.02;48.49
52957;BME280;38819;42.692;23.342;2023-03-08T10:37:06;94669.56;;;12.97;48.06
52957;BME280;38819;42.692;23.342;2023-03-08T10:39:34;94668.00;;;12.88;48.09
52957;BME280;38819;42.692;23.342;2023-03-08T10:42:06;94664.13;;;13.06;47.95
52957;BME280;38819;42.692;23.342;2023-03-08T10:44:41;94666.22;;;13.18;47.95
52957;BME280;38819;42.692;23.342;2023-03-08T10:47:22;94648.78;;;13.28;47.51
52957;BME280;38819;42.692;23.342;2023-03-08T10:49:48;94652.34;;;13.11;47.72
52957;BME280;38819;42.692;23.342;2023-03-08T10:52:26;94644.22;;;13.02;47.64
52957;BME280;38819;42.692;23.342;2023-03-08T10:55:13;94646.47;;;13.00;47.75
52957;BME280;38819;42.692;23.342;2023-03-08T10:57:41;94635.16;;;12.98;48.12
52957;BME280;38819;42.692;23.342;2023-03-08T11:02:47;94639.13;;;13.01;47.65
52957;BME280;38819;42.692;23.342;2023-03-08T11:05:22;94644.66;;;13.13;47.46
52957;BME280;38819;42.692;23.342;2023-03-08T11:07:53;94635.13;;;13.07;47.81
52957;BME280;38819;42.692;23.342;2023-03-08T11:10:21;94630.97;;;13.18;47.70
52957;BME280;38819;42.692;23.342;2023-03-08T11:13:05;94627.75;;;13.16;47.24
52957;BME280;38819;42.692;23.342;2023-03-08T11:15:33;94615.91;;;13.29;47.07
52957;BME280;38819;42.692;23.342;2023-03-08T11:20:41;94612.72;;;13.45;46.86
52957;BME280;38819;42.692;23.342;2023-03-08T11:31:43;94575.41;;;13.42;46.13
52957;BME280;38819;42.692;23.342;2023-03-08T11:39:28;94565.41;;;13.63;45.31
52957;BME280;38819;42.692;23.342;2023-03-08T11:47:51;94561.19;;;13.45;45.38
52957;BME280;38819;42.692;23.342;2023-03-08T11:50:30;94569.78;;;13.47;45.02
52957;BME280;38819;42.692;23.342;2023-03-08T11:53:17;94564.88;;;13.31;44.83
52957;BME280;38819;42.692;23.342;2023-03-08T12:01:15;94554.03;;;13.40;45.03
52957;BME280;38819;42.692;23.342;2023-03-08T12:03:45;94549.66;;;13.48;44.23
52957;BME280;38819;42.692;23.342;2023-03-08T12:06:23;94548.63;;;13.61;44.02
52957;BME280;38819;42.692;23.342;2023-03-08T12:08:55;94549.56;;;13.65;43.03
52957;BME280;38819;42.692;23.342;2023-03-08T12:11:31;94542.56;;;13.64;42.22
52957;BME280;38819;42.692;23.342;2023-03-08T12:14:04;94538.00;;;13.77;41.70
52957;BME280;38819;42.692;23.342;2023-03-08T12:16:39;94536.19;;;13.90;41.46
52957;BME280;38819;42.692;23.342;2023-03-08T12:30:32;94536.69;;;14.04;40.70
52957;BME280;38819;42.692;23.342;2023-03-08T12:33:03;94538.44;;;14.09;40.62
52957;BME280;38819;42.692;23.342;2023-03-08T12:35:35;94535.72;;;14.09;40.49
52957;BME280;38819;42.692;23.342;2023-03-08T12:38:05;94534.19;;;14.20;40.59
52957;BME280;38819;42.692;23.342;2023-03-08T12:40:41;94534.00;;;14.25;40.35
52957;BME280;38819;42.692;23.342;2023-03-08T12:43:27;94526.88;;;14.33;40.31
52957;BME280;38819;42.692;23.342;2023-03-08T12:48:50;94523.78;;;14.43;39.84
52957;BME280;38819;42.692;23.342;2023-03-08T12:51:29;94529.78;;;14.49;39.76
52957;BME280;38819;42.692;23.342;2023-03-08T12:53:59;94528.19;;;14.48;39.79
52957;BME280;38819;42.692;23.342;2023-03-08T12:56:32;94521.84;;;14.44;39.75
52957;BME280;38819;42.692;23.342;2023-03-08T12:59:00;94521.50;;;14.45;39.89
52957;BME280;38819;42.692;23.342;2023-03-08T13:01:31;94525.94;;;14.50;39.97
52957;BME280;38819;42.692;23.342;2023-03-08T13:03:56;94511.66;;;14.53;39.48
52957;BME280;38819;42.692;23.342;2023-03-08T13:09:03;94510.38;;;14.59;39.10
52957;BME280;38819;42.692;23.342;2023-03-08T13:11:38;94511.66;;;14.74;38.89
52957;BME280;38819;42.692;23.342;2023-03-08T13:14:23;94519.59;;;14.79;39.37
52957;BME280;38819;42.692;23.342;2023-03-08T13:16:49;94511.56;;;14.83;39.32
52957;BME280;38819;42.692;23.342;2023-03-08T13:21:49;94509.41;;;14.76;38.64
52957;BME280;38819;42.692;23.342;2023-03-08T13:29:16;94492.56;;;14.95;38.49
52957;BME280;38819;42.692;23.342;2023-03-08T13:31:43;94511.81;;;14.90;37.74
52957;BME280;38819;42.692;23.342;2023-03-08T13:34:38;94503.44;;;14.95;38.18
52957;BME280;38819;42.692;23.342;2023-03-08T13:37:18;94507.06;;;14.99;38.40
52957;BME280;38819;42.692;23.342;2023-03-08T13:39:57;94497.13;;;15.04;38.19
52957;BME280;38819;42.692;23.342;2023-03-08T13:42:25;94501.06;;;15.06;38.48
52957;BME280;38819;42.692;23.342;2023-03-08T13:44:51;94492.78;;;15.15;38.41
52957;BME280;38819;42.692;23.342;2023-03-08T13:49:48;94485.91;;;15.17;38.22
52957;BME280;38819;42.692;23.342;2023-03-08T13:52:23;94477.41;;;15.19;37.83
52957;BME280;38819;42.692;23.342;2023-03-08T13:54:54;94483.06;;;15.26;38.04
52957;BME280;38819;42.692;23.342;2023-03-08T13:57:31;94484.31;;;15.29;38.10
52957;BME280;38819;42.692;23.342;2023-03-08T14:00:29;94472.41;;;15.33;37.65
52957;BME280;38819;42.692;23.342;2023-03-08T14:02:56;94471.16;;;15.31;38.00
52957;BME280;38819;42.692;23.342;2023-03-08T14:05:25;94480.00;;;15.28;38.10
52957;BME280;38819;42.692;23.342;2023-03-08T14:08:01;94478.88;;;15.29;37.68
52957;BME280;38819;42.692;23.342;2023-03-08T14:13:02;94477.06;;;15.33;37.49
52957;BME280;38819;42.692;23.342;2023-03-08T14:15:29;94485.78;;;15.26;38.00
52957;BME280;38819;42.692;23.342;2023-03-08T14:17:56;94484.06;;;15.22;38.22
52957;BME280;38819;42.692;23.342;2023-03-08T14:20:23;94479.69;;;15.17;38.57